Ana Sayfa
METAR-TAF:

METAR-TAF

Havaalanları :

Maiduguri, Nijerya

Enlem: 11-51N, Boylam: 013-05E, yükseklik: 354 m

METAR: eksik

Saat: 09:02 (08:02 UTC)

Tahmin

Rapor saat 05:00 UTC de 3 saat ve 2 dakika önce yapıldı.
Ayın 19'si saat 06 UTC'den ayın 20'si saat 12 UTC'ye kadar geçerli Tahmin
Rüzgar güneybatıdan 10 kt
Görüş mesafesi 10 km veya daha fazla
1000 ft yükseklikte az bulutlu
Geçici
ayın 19'si saat 12 UTC'den ayın 19'si saat 18 UTC'ye kadar
1200 ft yükseklikte parçalı bulutlu
2000 ft yükseklikte az bulutlu, Kümülonimbus.
gök gürültülü fırtına,

TAF: DNMA 190500Z 1906/2012 23010KT 9999 FEW010 TEMPO 1912/1918 TS SCT012 FEW020CB

4.000'den fazla havaalanı için hava durumu gözlemleri ve tahminleri (METAR ve TAF raporları).

Kullanılabilir istasyonlar harita üzerinde sarı ve kırmızı noktalarla gösterilir.

İstasyonun adını görmek için fareyi noktanın üzerinde gezdirin.

Sonrasında hava gözlem ve tahminlerini görmek için tıklayın.

Haritayı değiştirmek için: yaklaştırmak için siyah artı işaretli yeşil düğmeye ve uzaklaştırmak için de eksi işaretli düğmeye hızla tıklayın; bitişik haritalar için yeşil okları kullanın.


METAR-TAF: